createdAt,value
2018-01-16T00:00:39.451Z,987.69
2018-01-16T00:01:19.998Z,987.66
2018-01-16T00:02:01.408Z,987.7
2018-01-16T00:02:41.906Z,987.68
2018-01-16T00:03:22.502Z,987.68
2018-01-16T00:04:02.981Z,987.58
2018-01-16T00:04:43.534Z,987.6
2018-01-16T00:05:24.073Z,987.6
2018-01-16T00:06:04.696Z,987.63
2018-01-16T00:06:45.217Z,987.74
2018-01-16T00:07:25.751Z,987.68
2018-01-16T00:08:06.305Z,987.66
2018-01-16T00:08:46.917Z,987.69
2018-01-16T00:09:27.415Z,987.81
2018-01-16T00:10:07.979Z,987.76
2018-01-16T00:10:48.569Z,987.73
2018-01-16T00:11:29.074Z,987.75
2018-01-16T00:12:09.707Z,987.71
2018-01-16T00:12:50.221Z,987.76
2018-01-16T00:13:30.754Z,987.65
2018-01-16T00:14:11.270Z,987.66
2018-01-16T00:14:51.841Z,987.57
2018-01-16T00:15:32.398Z,987.59
2018-01-16T00:16:12.908Z,987.66
2018-01-16T00:16:53.482Z,987.64
2018-01-16T00:17:33.983Z,987.62
2018-01-16T00:18:14.554Z,987.6
2018-01-16T00:18:55.065Z,987.67
2018-01-16T00:19:35.564Z,987.64
2018-01-16T00:20:16.085Z,987.62
2018-01-16T00:20:56.620Z,987.67
2018-01-16T00:21:37.216Z,987.69
2018-01-16T00:22:17.685Z,987.71
2018-01-16T00:22:58.279Z,987.78
2018-01-16T00:23:38.808Z,987.67
2018-01-16T00:24:19.322Z,987.76
2018-01-16T00:24:59.954Z,987.77
2018-01-16T00:25:40.481Z,987.71
2018-01-16T00:26:20.964Z,987.72
2018-01-16T00:27:01.556Z,987.61
2018-01-16T00:27:42.075Z,987.67
2018-01-16T00:28:22.577Z,987.64
2018-01-16T00:29:03.157Z,987.7
2018-01-16T00:29:43.686Z,987.68
2018-01-16T00:30:24.199Z,987.65
2018-01-16T00:31:04.737Z,987.61
2018-01-16T00:31:45.273Z,987.7
2018-01-16T00:32:25.855Z,987.62
2018-01-16T00:33:06.360Z,987.62
2018-01-16T00:33:46.902Z,987.64
2018-01-16T00:34:27.488Z,987.62
2018-01-16T00:35:07.998Z,987.65
2018-01-16T00:35:48.620Z,987.68
2018-01-16T00:36:29.148Z,987.76
2018-01-16T00:37:09.706Z,987.64
2018-01-16T00:37:50.221Z,987.68
2018-01-16T00:38:30.874Z,987.71
2018-01-16T00:39:11.366Z,987.72
2018-01-16T00:39:51.954Z,987.63
2018-01-16T00:40:32.501Z,987.72
2018-01-16T00:41:13.114Z,987.74
2018-01-16T00:41:53.665Z,987.72
2018-01-16T00:42:34.164Z,987.69
2018-01-16T00:43:14.741Z,987.67
2018-01-16T00:43:55.268Z,987.62
2018-01-16T00:44:35.821Z,987.57
2018-01-16T00:45:16.286Z,987.63
2018-01-16T00:45:56.824Z,987.65
2018-01-16T00:46:37.409Z,987.52
2018-01-16T00:47:17.960Z,987.52
2018-01-16T00:47:58.523Z,987.47
2018-01-16T00:48:39.038Z,987.5
2018-01-16T00:49:19.573Z,987.49
2018-01-16T00:50:00.110Z,987.53
2018-01-16T00:50:40.646Z,987.53
2018-01-16T00:51:21.153Z,987.59
2018-01-16T00:52:01.692Z,987.6
2018-01-16T00:52:42.246Z,987.54
2018-01-16T00:53:22.851Z,987.66
2018-01-16T00:54:03.254Z,987.63
2018-01-16T00:54:43.823Z,987.53
2018-01-16T00:55:24.311Z,987.61
2018-01-16T00:56:04.875Z,987.61
2018-01-16T00:56:45.431Z,987.58
2018-01-16T00:57:25.975Z,987.53
2018-01-16T00:58:06.448Z,987.52
2018-01-16T00:58:47.073Z,987.51
2018-01-16T00:59:27.673Z,987.56
2018-01-16T01:00:08.187Z,987.51
2018-01-16T01:00:48.727Z,987.64
2018-01-16T01:01:29.327Z,987.57
2018-01-16T01:02:09.828Z,987.63
2018-01-16T01:02:50.365Z,987.63
2018-01-16T01:03:30.878Z,987.62
2018-01-16T01:04:11.392Z,987.64
2018-01-16T01:04:51.919Z,987.63
2018-01-16T01:05:32.471Z,987.68
2018-01-16T01:06:13.022Z,987.58
2018-01-16T01:06:53.558Z,987.75
2018-01-16T01:07:34.064Z,987.65
2018-01-16T01:08:14.587Z,987.63
2018-01-16T01:08:55.135Z,987.59
2018-01-16T01:09:35.631Z,987.63
2018-01-16T01:10:16.223Z,987.62
2018-01-16T01:10:56.723Z,987.66
2018-01-16T01:11:37.247Z,987.63
2018-01-16T01:12:17.785Z,987.69
2018-01-16T01:12:58.247Z,987.73
2018-01-16T01:13:38.818Z,987.58
2018-01-16T01:14:19.320Z,987.66
2018-01-16T01:14:59.905Z,987.63
2018-01-16T01:15:40.446Z,987.72
2018-01-16T01:16:20.907Z,987.7
2018-01-16T01:17:01.455Z,987.56
2018-01-16T01:17:41.992Z,987.61
2018-01-16T01:18:22.519Z,987.62
2018-01-16T01:19:03.072Z,987.68
2018-01-16T01:19:43.627Z,987.7
2018-01-16T01:20:24.162Z,987.68
2018-01-16T01:21:04.712Z,987.76
2018-01-16T01:21:45.257Z,987.73
2018-01-16T01:22:25.842Z,987.81
2018-01-16T01:23:06.408Z,987.75
2018-01-16T01:23:46.941Z,987.79
2018-01-16T01:24:27.497Z,987.75
2018-01-16T01:25:07.989Z,987.75
2018-01-16T01:25:48.553Z,987.71
2018-01-16T01:26:29.072Z,987.65
2018-01-16T01:27:09.640Z,987.73
2018-01-16T01:27:50.160Z,987.84
2018-01-16T01:28:30.690Z,987.68
2018-01-16T01:29:11.177Z,987.65
2018-01-16T01:29:51.721Z,987.72
2018-01-16T01:30:32.263Z,987.67
2018-01-16T01:31:12.772Z,987.6
2018-01-16T01:31:53.343Z,987.55
2018-01-16T01:32:33.937Z,987.54
2018-01-16T01:33:14.488Z,987.56
2018-01-16T01:33:55.119Z,987.59
2018-01-16T01:34:35.560Z,987.53
2018-01-16T01:35:16.114Z,987.47
2018-01-16T01:35:56.702Z,987.49
2018-01-16T01:36:37.179Z,987.47
2018-01-16T01:37:17.716Z,987.51
2018-01-16T01:37:58.243Z,987.54
2018-01-16T01:38:38.788Z,987.57
2018-01-16T01:39:19.342Z,987.56
2018-01-16T01:39:59.958Z,987.46
2018-01-16T01:40:40.374Z,987.54
2018-01-16T01:41:20.925Z,987.52
2018-01-16T01:42:01.475Z,987.52
2018-01-16T01:42:42.011Z,987.55
2018-01-16T01:43:22.582Z,987.58
2018-01-16T01:44:03.059Z,987.51
2018-01-16T01:44:43.606Z,987.52
2018-01-16T01:45:24.213Z,987.58
2018-01-16T01:46:04.702Z,987.64
2018-01-16T01:46:45.213Z,987.63
2018-01-16T01:47:25.774Z,987.6
2018-01-16T01:48:06.337Z,987.62
2018-01-16T01:48:46.924Z,987.53
2018-01-16T01:49:27.423Z,987.65
2018-01-16T01:50:08.016Z,987.49
2018-01-16T01:50:48.527Z,987.54
2018-01-16T01:51:29.046Z,987.54
2018-01-16T01:52:09.586Z,987.52
2018-01-16T01:52:50.135Z,987.54
2018-01-16T01:53:30.630Z,987.53
2018-01-16T01:54:11.177Z,987.51
2018-01-16T01:54:51.657Z,987.55
2018-01-16T01:55:32.185Z,987.45
2018-01-16T01:56:12.709Z,987.5
2018-01-16T01:56:53.278Z,987.44
2018-01-16T01:57:33.843Z,987.44
2018-01-16T01:58:14.353Z,987.43
2018-01-16T01:58:54.872Z,987.42
2018-01-16T01:59:35.452Z,987.41
2018-01-16T02:00:16.006Z,987.48
2018-01-16T02:00:56.552Z,987.46
2018-01-16T02:01:37.099Z,987.43
2018-01-16T02:02:17.826Z,987.4
2018-01-16T02:02:58.367Z,987.42
2018-01-16T02:03:38.948Z,987.41
2018-01-16T02:04:19.485Z,987.42
2018-01-16T02:05:00.012Z,987.43
2018-01-16T02:05:40.537Z,987.43
2018-01-16T02:06:21.087Z,987.41
2018-01-16T02:07:01.576Z,987.35
2018-01-16T02:07:42.166Z,987.37
2018-01-16T02:08:22.703Z,987.38
2018-01-16T02:09:03.247Z,987.39
2018-01-16T02:09:43.769Z,987.38
2018-01-16T02:10:24.297Z,987.42
2018-01-16T02:11:04.864Z,987.47
2018-01-16T02:11:45.425Z,987.42
2018-01-16T02:12:26.001Z,987.37
2018-01-16T02:13:06.595Z,987.38
2018-01-16T02:13:47.085Z,987.48
2018-01-16T02:14:27.649Z,987.37
2018-01-16T02:15:08.174Z,987.38
2018-01-16T02:15:48.671Z,987.37
2018-01-16T02:16:29.232Z,987.44
2018-01-16T02:17:09.765Z,987.44
2018-01-16T02:17:50.253Z,987.34
2018-01-16T02:18:30.795Z,987.37
2018-01-16T02:19:11.348Z,987.4
2018-01-16T02:19:51.876Z,987.36
2018-01-16T02:20:32.397Z,987.35
2018-01-16T02:21:12.958Z,987.33
2018-01-16T02:21:53.460Z,987.35
2018-01-16T02:22:34.015Z,987.26
2018-01-16T02:23:14.543Z,987.17
2018-01-16T02:23:55.147Z,987.28
2018-01-16T02:24:36.535Z,987.21
2018-01-16T02:25:17.084Z,987.19
2018-01-16T02:25:57.599Z,987.22
2018-01-16T02:26:38.172Z,987.23
2018-01-16T02:27:18.743Z,987.27
2018-01-16T02:27:59.226Z,987.2
2018-01-16T02:28:39.779Z,987.2
2018-01-16T02:29:20.307Z,987.22
2018-01-16T02:30:00.802Z,987.2
2018-01-16T02:30:41.427Z,987.13
2018-01-16T02:31:21.971Z,987.1
2018-01-16T02:32:02.466Z,987.02
2018-01-16T02:32:43.061Z,986.98
2018-01-16T02:33:23.588Z,986.89
2018-01-16T02:34:04.074Z,986.92
2018-01-16T02:34:44.703Z,986.84
2018-01-16T02:35:25.245Z,986.76
2018-01-16T02:36:05.794Z,986.72
2018-01-16T02:36:46.305Z,986.77
2018-01-16T02:37:26.874Z,986.74
2018-01-16T02:38:07.409Z,986.84
2018-01-16T02:38:47.933Z,986.76
2018-01-16T02:39:28.535Z,986.85
2018-01-16T02:40:09.045Z,986.82
2018-01-16T02:40:49.558Z,986.82
2018-01-16T02:41:30.108Z,986.75
2018-01-16T02:42:10.669Z,986.78
2018-01-16T02:42:51.183Z,986.84
2018-01-16T02:43:31.684Z,986.78
2018-01-16T02:44:12.241Z,986.76
2018-01-16T02:44:52.841Z,986.66
2018-01-16T02:45:33.348Z,986.67
2018-01-16T02:46:13.816Z,986.66
2018-01-16T02:46:54.396Z,986.7
2018-01-16T02:47:34.970Z,986.75
2018-01-16T02:48:15.522Z,986.75
2018-01-16T02:48:56.015Z,986.83
2018-01-16T02:49:36.557Z,986.81
2018-01-16T02:50:17.124Z,986.78
2018-01-16T02:50:57.663Z,986.81
2018-01-16T02:51:38.223Z,986.8
2018-01-16T02:52:18.847Z,986.66
2018-01-16T02:52:59.299Z,986.69
2018-01-16T02:53:39.854Z,986.69
2018-01-16T02:54:20.390Z,986.75
2018-01-16T02:55:00.924Z,986.76
2018-01-16T02:55:41.552Z,986.75
2018-01-16T02:56:22.019Z,986.8
2018-01-16T02:57:02.561Z,986.74
2018-01-16T02:57:43.105Z,986.81
2018-01-16T02:58:23.610Z,986.74
2018-01-16T02:59:04.163Z,986.77
2018-01-16T02:59:44.725Z,986.71
2018-01-16T03:00:25.202Z,986.68
2018-01-16T03:01:05.777Z,986.7
2018-01-16T03:01:46.269Z,986.67
2018-01-16T03:02:26.888Z,986.66
2018-01-16T03:03:07.377Z,986.66
2018-01-16T03:03:47.916Z,986.67
2018-01-16T03:04:28.395Z,986.69
2018-01-16T03:05:08.976Z,986.66
2018-01-16T03:05:49.484Z,986.63
2018-01-16T03:06:29.990Z,986.68
2018-01-16T03:07:10.508Z,986.69
2018-01-16T03:07:51.038Z,986.7
2018-01-16T03:08:31.629Z,986.77
2018-01-16T03:09:12.200Z,986.84
2018-01-16T03:09:52.724Z,986.91
2018-01-16T03:10:33.260Z,986.85
2018-01-16T03:11:13.879Z,986.93
2018-01-16T03:11:54.433Z,986.94
2018-01-16T03:12:34.966Z,986.92
2018-01-16T03:13:15.559Z,986.83
2018-01-16T03:13:56.052Z,986.83
2018-01-16T03:14:36.607Z,986.74
2018-01-16T03:15:17.156Z,986.76
2018-01-16T03:15:57.708Z,986.71
2018-01-16T03:16:38.173Z,986.72
2018-01-16T03:17:18.719Z,986.72
2018-01-16T03:17:59.269Z,986.68
2018-01-16T03:18:39.767Z,986.69
2018-01-16T03:19:20.329Z,986.8
2018-01-16T03:20:00.860Z,986.78
2018-01-16T03:20:41.438Z,986.77
2018-01-16T03:21:22.012Z,986.76
2018-01-16T03:22:02.467Z,986.76
2018-01-16T03:22:43.041Z,986.75
2018-01-16T03:23:23.604Z,986.76
2018-01-16T03:24:04.106Z,986.77
2018-01-16T03:24:44.697Z,986.75
2018-01-16T03:25:25.243Z,986.78
2018-01-16T03:26:05.769Z,986.76
2018-01-16T03:26:46.294Z,986.69
2018-01-16T03:27:26.850Z,986.66
2018-01-16T03:28:07.358Z,986.64
2018-01-16T03:28:47.937Z,986.65
2018-01-16T03:29:28.524Z,986.7
2018-01-16T03:30:09.008Z,986.66
2018-01-16T03:30:49.581Z,986.61
2018-01-16T03:31:30.099Z,986.61
2018-01-16T03:32:10.606Z,986.51
2018-01-16T03:32:51.203Z,986.57
2018-01-16T03:33:31.728Z,986.51
2018-01-16T03:34:12.260Z,986.6
2018-01-16T03:34:52.785Z,986.55
2018-01-16T03:35:33.315Z,986.54
2018-01-16T03:36:13.923Z,986.49
2018-01-16T03:36:54.500Z,986.53
2018-01-16T03:37:35.029Z,986.6
2018-01-16T03:38:15.565Z,986.52
2018-01-16T03:38:56.063Z,986.54
2018-01-16T03:39:36.587Z,986.49
2018-01-16T03:40:17.126Z,986.49
2018-01-16T03:40:57.689Z,986.46
2018-01-16T03:41:38.256Z,986.47
2018-01-16T03:42:18.820Z,986.48
2018-01-16T03:42:59.399Z,986.39
2018-01-16T03:43:39.910Z,986.34
2018-01-16T03:44:20.520Z,986.35
2018-01-16T03:45:01.028Z,986.41
2018-01-16T03:45:41.550Z,986.38
2018-01-16T03:46:22.051Z,986.35
2018-01-16T03:47:02.575Z,986.35
2018-01-16T03:47:43.080Z,986.32
2018-01-16T03:48:23.619Z,986.31
2018-01-16T03:49:04.228Z,986.22
2018-01-16T03:49:44.772Z,986.21
2018-01-16T03:50:25.295Z,986.2
2018-01-16T03:51:05.887Z,986.17
2018-01-16T03:51:46.396Z,986.2
2018-01-16T03:52:27.009Z,986.22
2018-01-16T03:53:07.578Z,986.22
2018-01-16T03:53:48.081Z,986.21
2018-01-16T03:54:28.630Z,986.26
2018-01-16T03:55:09.156Z,986.19
2018-01-16T03:55:49.695Z,986.23
2018-01-16T03:56:30.174Z,986.12
2018-01-16T03:57:10.769Z,986.13
2018-01-16T03:57:51.271Z,986.12
2018-01-16T03:58:31.776Z,986.08
2018-01-16T03:59:12.325Z,986.11
2018-01-16T03:59:52.873Z,985.97
2018-01-16T04:00:33.386Z,985.96
2018-01-16T04:01:13.920Z,986
2018-01-16T04:01:54.447Z,985.96
2018-01-16T04:02:34.988Z,985.91
2018-01-16T04:03:15.539Z,985.9
2018-01-16T04:03:56.075Z,985.91
2018-01-16T04:04:36.622Z,985.87
2018-01-16T04:05:17.229Z,985.79
2018-01-16T04:05:57.731Z,985.76
2018-01-16T04:06:38.255Z,985.82
2018-01-16T04:07:18.776Z,985.75
2018-01-16T04:07:59.244Z,985.73
2018-01-16T04:08:39.801Z,985.71
2018-01-16T04:09:20.364Z,985.65
2018-01-16T04:10:00.903Z,985.68
2018-01-16T04:10:41.440Z,985.72
2018-01-16T04:11:21.970Z,985.69
2018-01-16T04:12:02.544Z,985.69
2018-01-16T04:12:43.081Z,985.65
2018-01-16T04:13:23.605Z,985.64
2018-01-16T04:14:04.129Z,985.62
2018-01-16T04:14:44.662Z,985.66
2018-01-16T04:15:25.206Z,985.61
2018-01-16T04:16:05.754Z,985.65
2018-01-16T04:16:46.319Z,985.68
2018-01-16T04:17:26.800Z,985.68
2018-01-16T04:18:07.320Z,985.66
2018-01-16T04:18:47.859Z,985.61
2018-01-16T04:19:28.373Z,985.57
2018-01-16T04:20:08.881Z,985.51
2018-01-16T04:20:49.420Z,985.53
2018-01-16T04:21:29.994Z,985.51
2018-01-16T04:22:10.509Z,985.47
2018-01-16T04:22:51.033Z,985.34
2018-01-16T04:23:31.536Z,985.43
2018-01-16T04:24:12.093Z,985.43
2018-01-16T04:24:52.643Z,985.42
2018-01-16T04:25:33.172Z,985.57
2018-01-16T04:26:13.814Z,985.6
2018-01-16T04:26:54.320Z,985.56
2018-01-16T04:27:34.821Z,985.58
2018-01-16T04:28:15.329Z,985.53
2018-01-16T04:28:55.861Z,985.51
2018-01-16T04:29:36.473Z,985.51
2018-01-16T04:30:17.032Z,985.53
2018-01-16T04:30:57.537Z,985.43
2018-01-16T04:31:38.093Z,985.45
2018-01-16T04:34:06.617Z,985.43
2018-01-16T04:34:47.278Z,985.47
2018-01-16T04:35:27.896Z,985.43
2018-01-16T04:36:08.647Z,985.35
2018-01-16T04:36:49.162Z,985.32
2018-01-16T04:37:29.657Z,985.37
2018-01-16T04:38:10.231Z,985.29
2018-01-16T04:38:50.773Z,985.29
2018-01-16T04:39:31.296Z,985.26
2018-01-16T04:40:11.800Z,985.3
2018-01-16T04:40:52.354Z,985.24
2018-01-16T04:41:32.882Z,985.19
2018-01-16T04:42:13.418Z,985.19
2018-01-16T04:42:53.965Z,985.2
2018-01-16T04:43:34.503Z,985.24
2018-01-16T04:44:15.049Z,985.14
2018-01-16T04:44:55.637Z,985.24
2018-01-16T04:45:36.149Z,985.18
2018-01-16T04:46:16.640Z,985.15
2018-01-16T04:46:57.287Z,985.1
2018-01-16T04:47:37.825Z,985.06
2018-01-16T04:48:18.440Z,985.05
2018-01-16T04:48:59.015Z,985.03
2018-01-16T04:49:39.546Z,985.09
2018-01-16T04:50:20.045Z,985.08
2018-01-16T04:51:00.599Z,985.07
2018-01-16T04:51:41.179Z,985.1
2018-01-16T04:52:21.705Z,985.07
2018-01-16T04:53:02.234Z,985.08
2018-01-16T04:53:42.880Z,984.96
2018-01-16T04:54:23.362Z,984.92
2018-01-16T04:55:03.863Z,984.86
2018-01-16T04:55:44.433Z,984.82
2018-01-16T04:56:24.990Z,984.82
2018-01-16T04:57:05.536Z,984.81
2018-01-16T04:57:46.028Z,984.78
2018-01-16T04:58:26.614Z,984.7
2018-01-16T04:59:07.184Z,984.64
2018-01-16T04:59:47.722Z,984.65
2018-01-16T05:00:28.290Z,984.7
2018-01-16T05:01:08.818Z,984.62
2018-01-16T05:01:49.316Z,984.54
2018-01-16T05:02:29.868Z,984.51
2018-01-16T05:03:10.424Z,984.55
2018-01-16T05:03:50.937Z,984.6
2018-01-16T05:04:31.553Z,984.58
2018-01-16T05:05:12.042Z,984.6
2018-01-16T05:05:52.599Z,984.61
2018-01-16T05:06:33.143Z,984.61
2018-01-16T05:07:13.666Z,984.58
2018-01-16T05:07:54.229Z,984.55
2018-01-16T05:08:34.789Z,984.6
2018-01-16T05:09:15.337Z,984.57
2018-01-16T05:09:55.925Z,984.58
2018-01-16T05:10:36.450Z,984.63
2018-01-16T05:11:16.948Z,984.6
2018-01-16T05:11:57.546Z,984.58
2018-01-16T05:12:38.061Z,984.56
2018-01-16T05:13:18.579Z,984.55
2018-01-16T05:13:59.104Z,984.53
2018-01-16T05:14:39.656Z,984.53
2018-01-16T05:15:20.207Z,984.5
2018-01-16T05:16:00.748Z,984.49
2018-01-16T05:16:41.265Z,984.42
2018-01-16T05:17:21.827Z,984.44
2018-01-16T05:18:02.349Z,984.44
2018-01-16T05:18:42.928Z,984.5
2018-01-16T05:19:23.380Z,984.45
2018-01-16T05:20:03.900Z,984.48
2018-01-16T05:20:44.490Z,984.42
2018-01-16T05:21:25.032Z,984.43
2018-01-16T05:22:05.554Z,984.47
2018-01-16T05:22:46.154Z,984.36
2018-01-16T05:23:26.660Z,984.33
2018-01-16T05:24:07.153Z,984.31
2018-01-16T05:24:47.656Z,984.34
2018-01-16T05:25:28.158Z,984.25
2018-01-16T05:26:08.696Z,984.21
2018-01-16T05:26:49.211Z,984.26
2018-01-16T05:27:29.796Z,984.28
2018-01-16T05:28:10.271Z,984.25
2018-01-16T05:28:50.826Z,984.26
2018-01-16T05:29:31.370Z,984.26
2018-01-16T05:30:11.898Z,984.25
2018-01-16T05:30:52.390Z,984.28
2018-01-16T05:31:32.916Z,984.24
2018-01-16T05:32:13.473Z,984.3
2018-01-16T05:32:53.941Z,984.18
2018-01-16T05:33:34.474Z,984.24
2018-01-16T05:34:15.006Z,984.25
2018-01-16T05:34:55.515Z,984.31
2018-01-16T05:35:36.084Z,984.23
2018-01-16T05:36:16.679Z,984.22
2018-01-16T05:36:57.253Z,984.28
2018-01-16T05:37:37.813Z,984.23
2018-01-16T05:38:18.408Z,984.15
2018-01-16T05:38:58.926Z,984.18
2018-01-16T05:39:39.439Z,984.23
2018-01-16T05:40:20.027Z,984.09
2018-01-16T05:41:00.592Z,984.08
2018-01-16T05:41:41.086Z,984.1
2018-01-16T05:42:21.611Z,984.16
2018-01-16T05:43:02.146Z,984.11
2018-01-16T05:43:42.610Z,984
2018-01-16T05:44:23.155Z,984.01
2018-01-16T05:45:03.663Z,984.14
2018-01-16T05:45:44.245Z,984.11
2018-01-16T05:46:24.738Z,984.03
2018-01-16T05:47:05.317Z,984.08
2018-01-16T05:47:45.838Z,984.09
2018-01-16T05:48:26.394Z,984.06
2018-01-16T05:49:06.913Z,983.88
2018-01-16T05:49:47.480Z,983.97
2018-01-16T05:50:28.091Z,983.86
2018-01-16T05:51:08.586Z,984.01
2018-01-16T05:51:49.184Z,984.17
2018-01-16T05:52:29.718Z,984.23
2018-01-16T05:53:10.283Z,984.16
2018-01-16T05:53:50.783Z,984.15
2018-01-16T05:54:31.344Z,984.07
2018-01-16T05:55:11.956Z,984.06
2018-01-16T05:55:52.525Z,984
2018-01-16T05:56:33.014Z,983.95
2018-01-16T05:57:13.572Z,984.04
2018-01-16T05:57:54.145Z,983.93
2018-01-16T05:58:34.702Z,984.02
2018-01-16T05:59:18.345Z,983.89
2018-01-16T06:00:53.401Z,983.97
2018-01-16T06:01:33.917Z,983.95
2018-01-16T06:02:14.468Z,983.91
2018-01-16T06:02:55.016Z,983.94
2018-01-16T06:03:35.558Z,983.91
2018-01-16T06:04:16.148Z,983.98
2018-01-16T06:04:56.698Z,984.01
2018-01-16T06:05:37.305Z,984.14
2018-01-16T06:06:17.733Z,984.08
2018-01-16T06:06:58.286Z,984.16
2018-01-16T06:07:38.795Z,984.1
2018-01-16T06:08:19.335Z,984.18
2018-01-16T06:08:59.895Z,984.1
2018-01-16T06:09:40.448Z,984.09
2018-01-16T06:10:21.029Z,984.11
2018-01-16T06:11:01.520Z,984.01
2018-01-16T06:11:42.076Z,984.06
2018-01-16T06:12:22.602Z,983.92
2018-01-16T06:13:03.439Z,983.99
2018-01-16T06:13:43.836Z,984
2018-01-16T06:14:24.499Z,983.96
2018-01-16T06:15:05.022Z,983.87
2018-01-16T06:15:45.534Z,983.97
2018-01-16T06:16:26.131Z,983.92
2018-01-16T06:17:06.676Z,983.84
2018-01-16T06:17:47.231Z,983.84
2018-01-16T06:18:27.807Z,983.77
2018-01-16T06:19:08.328Z,983.81
2018-01-16T06:19:48.873Z,983.84
2018-01-16T06:20:29.473Z,983.8
2018-01-16T06:21:10.006Z,983.9
2018-01-16T06:21:50.573Z,983.87
2018-01-16T06:22:31.118Z,983.95
2018-01-16T06:23:11.611Z,983.91
2018-01-16T06:23:52.278Z,983.94
2018-01-16T06:24:32.877Z,983.94
2018-01-16T06:25:13.376Z,983.96
2018-01-16T06:25:53.972Z,984.04
2018-01-16T06:26:34.469Z,983.95
2018-01-16T06:27:15.027Z,983.99
2018-01-16T06:27:55.557Z,984.02
2018-01-16T06:28:36.144Z,984.03
2018-01-16T06:29:16.702Z,984.05
2018-01-16T06:29:57.230Z,984.11
2018-01-16T06:30:37.699Z,984.04
2018-01-16T06:31:18.284Z,983.99
2018-01-16T06:31:58.780Z,984.08
2018-01-16T06:32:39.362Z,984.17
2018-01-16T06:33:19.872Z,984.25
2018-01-16T06:34:00.406Z,984.21
2018-01-16T06:34:40.936Z,984.25
2018-01-16T06:35:21.477Z,984.16
2018-01-16T06:36:02.072Z,984.19
2018-01-16T06:36:42.682Z,984.2
2018-01-16T06:37:23.161Z,984.32
2018-01-16T06:38:03.694Z,984.21
2018-01-16T06:38:44.269Z,984.25
2018-01-16T06:39:24.793Z,984.25
2018-01-16T06:40:05.424Z,984.31
2018-01-16T06:40:45.963Z,984.24
2018-01-16T06:41:26.518Z,984.25
2018-01-16T06:42:07.070Z,984.32
2018-01-16T06:42:47.653Z,984.31
2018-01-16T06:43:28.198Z,984.32
2018-01-16T06:44:08.705Z,984.33
2018-01-16T06:44:49.224Z,984.34
2018-01-16T06:45:29.807Z,984.34
2018-01-16T06:46:10.329Z,984.45
2018-01-16T06:46:51.345Z,984.34
2018-01-16T06:47:31.936Z,984.45
2018-01-16T06:48:12.532Z,984.5
2018-01-16T06:48:53.143Z,984.47
2018-01-16T06:49:33.702Z,984.4
2018-01-16T06:50:14.181Z,984.5
2018-01-16T06:50:54.727Z,984.47
2018-01-16T06:51:35.295Z,984.53
2018-01-16T06:52:15.830Z,984.45
2018-01-16T06:52:56.357Z,984.58
2018-01-16T06:53:36.935Z,984.55
2018-01-16T06:54:17.483Z,984.61
2018-01-16T06:54:58.028Z,984.55
2018-01-16T06:55:38.548Z,984.5
2018-01-16T06:56:19.072Z,984.52
2018-01-16T06:56:59.616Z,984.54
2018-01-16T06:57:40.168Z,984.53
2018-01-16T06:58:20.708Z,984.57
2018-01-16T06:59:01.283Z,984.72
2018-01-16T06:59:41.772Z,984.6
2018-01-16T07:00:22.322Z,984.63
2018-01-16T07:01:02.906Z,984.59
2018-01-16T07:01:43.413Z,984.67
2018-01-16T07:02:24.246Z,984.63
2018-01-16T07:03:04.704Z,984.68
2018-01-16T07:03:45.265Z,984.57
2018-01-16T07:04:25.801Z,984.61
2018-01-16T07:05:06.383Z,984.63
2018-01-16T07:05:47.046Z,984.65
2018-01-16T07:06:28.258Z,984.65
2018-01-16T07:07:08.886Z,984.59
2018-01-16T07:07:49.377Z,984.62
2018-01-16T07:08:29.939Z,984.58
2018-01-16T07:09:10.511Z,984.66
2018-01-16T07:09:51.059Z,984.68
2018-01-16T07:10:31.655Z,984.76
2018-01-16T07:11:12.186Z,984.77
2018-01-16T07:11:52.721Z,984.73
2018-01-16T07:12:33.307Z,984.76
2018-01-16T07:13:13.840Z,984.81
2018-01-16T07:13:54.369Z,984.74
2018-01-16T07:14:34.943Z,984.69
2018-01-16T07:15:15.494Z,984.74
2018-01-16T07:15:56.028Z,984.66
2018-01-16T07:16:36.578Z,984.7
2018-01-16T07:17:17.543Z,984.64
2018-01-16T07:17:58.030Z,984.6
2018-01-16T07:18:38.607Z,984.59
2018-01-16T07:19:19.151Z,984.55
2018-01-16T07:19:59.702Z,984.65
2018-01-16T07:20:40.228Z,984.52
2018-01-16T07:21:20.760Z,984.6
2018-01-16T07:22:01.313Z,984.55
2018-01-16T07:22:41.874Z,984.65
2018-01-16T07:23:22.448Z,984.56
2018-01-16T07:24:02.960Z,984.61
2018-01-16T07:24:43.489Z,984.54
2018-01-16T07:25:24.015Z,984.56
2018-01-16T07:26:04.580Z,984.6
2018-01-16T07:26:45.089Z,984.6
2018-01-16T07:27:25.632Z,984.62
2018-01-16T07:28:06.195Z,984.6
2018-01-16T07:28:46.733Z,984.61
2018-01-16T07:29:27.321Z,984.67
2018-01-16T07:30:07.833Z,984.71
2018-01-16T07:30:48.433Z,984.66
2018-01-16T07:31:28.939Z,984.65
2018-01-16T07:32:09.430Z,984.79
2018-01-16T07:32:50.003Z,984.68
2018-01-16T07:33:30.501Z,984.72
2018-01-16T07:34:11.046Z,984.72
2018-01-16T07:34:51.590Z,984.77
2018-01-16T07:35:32.090Z,984.76
2018-01-16T07:36:12.595Z,984.79
2018-01-16T07:36:53.151Z,984.79
2018-01-16T07:37:33.625Z,984.77
2018-01-16T07:38:14.174Z,984.86
2018-01-16T07:38:54.695Z,984.86
2018-01-16T07:39:35.195Z,984.87
2018-01-16T07:40:15.743Z,984.92
2018-01-16T07:40:56.264Z,985.01
2018-01-16T07:41:36.780Z,984.98
2018-01-16T07:42:17.358Z,984.98
2018-01-16T07:42:57.898Z,984.96
2018-01-16T07:43:38.430Z,984.95
2018-01-16T07:44:18.964Z,985.02
2018-01-16T07:44:59.485Z,985.04
2018-01-16T07:45:40.045Z,985.02
2018-01-16T07:46:20.583Z,985
2018-01-16T07:47:01.587Z,984.9
2018-01-16T07:47:42.154Z,985
2018-01-16T07:48:22.672Z,985
2018-01-16T07:49:03.659Z,984.91
2018-01-16T07:49:44.227Z,984.94
2018-01-16T07:50:24.765Z,984.99
2018-01-16T07:51:05.306Z,985
2018-01-16T07:51:45.828Z,984.99
2018-01-16T07:52:26.434Z,985.03
2018-01-16T07:53:06.955Z,985.08
2018-01-16T07:53:47.501Z,985.09
2018-01-16T07:54:28.112Z,985.14
2018-01-16T07:55:08.596Z,985.18
2018-01-16T07:55:49.138Z,985.24
2018-01-16T07:56:29.671Z,985.15
2018-01-16T07:57:10.227Z,985.21
2018-01-16T07:57:50.701Z,985.31
2018-01-16T07:58:31.222Z,985.31
2018-01-16T07:59:11.798Z,985.31
2018-01-16T07:59:52.349Z,985.17
2018-01-16T08:02:10.773Z,985.51
2018-01-16T08:02:51.283Z,985.53
2018-01-16T08:03:31.822Z,985.43
2018-01-16T08:04:12.434Z,985.43
2018-01-16T08:04:52.920Z,985.42
2018-01-16T08:05:33.451Z,985.21
2018-01-16T08:06:14.011Z,985.24
2018-01-16T08:06:54.491Z,985.23
2018-01-16T08:07:35.056Z,985.16
2018-01-16T08:08:15.577Z,985.05
2018-01-16T08:08:56.128Z,985.17
2018-01-16T08:09:36.647Z,985.21
2018-01-16T08:10:17.223Z,985.35
2018-01-16T08:10:57.740Z,985.33
2018-01-16T08:11:38.301Z,985.46
2018-01-16T08:12:18.850Z,985.31
2018-01-16T08:12:59.332Z,985.24
2018-01-16T08:13:39.917Z,985.25
2018-01-16T08:14:20.415Z,985.34
2018-01-16T08:15:01.047Z,985.39
2018-01-16T08:15:41.571Z,985.24
2018-01-16T08:16:22.103Z,985.3
2018-01-16T08:17:02.612Z,985.37
2018-01-16T08:17:43.223Z,985.32
2018-01-16T08:18:23.732Z,985.37
2018-01-16T08:19:04.379Z,985.4
2018-01-16T08:19:44.922Z,985.38
2018-01-16T08:20:25.417Z,985.44
2018-01-16T08:21:05.967Z,985.48
2018-01-16T08:21:46.470Z,985.54
2018-01-16T08:22:27.056Z,985.59
2018-01-16T08:23:07.601Z,985.55
2018-01-16T08:23:48.102Z,985.75
2018-01-16T08:24:28.648Z,985.66
2018-01-16T08:25:09.196Z,985.68
2018-01-16T08:25:49.722Z,985.61
2018-01-16T08:26:30.307Z,985.69
2018-01-16T08:27:10.866Z,985.63
2018-01-16T08:27:51.352Z,985.65
2018-01-16T08:28:31.960Z,985.63
2018-01-16T08:29:12.490Z,985.56
2018-01-16T08:29:53.045Z,985.58
2018-01-16T08:30:33.738Z,985.67
2018-01-16T08:31:14.335Z,985.7
2018-01-16T08:31:54.885Z,985.65
2018-01-16T08:32:35.424Z,985.68